sensor_id;sensor_type;location;lat;lon;timestamp;P1;durP1;ratioP1;P2;durP2;ratioP2
29662;SDS011;16578;53.266;7.920;2023-04-06T00:01:40;9.55;;;6.25;;
29662;SDS011;16578;53.266;7.920;2023-04-06T00:04:05;9.32;;;6.95;;
29662;SDS011;16578;53.266;7.920;2023-04-06T00:06:31;9.68;;;6.40;;
29662;SDS011;16578;53.266;7.920;2023-04-06T00:08:57;9.18;;;5.97;;
29662;SDS011;16578;53.266;7.920;2023-04-06T00:11:23;9.88;;;5.35;;
29662;SDS011;16578;53.266;7.920;2023-04-06T00:13:49;9.15;;;5.47;;
29662;SDS011;16578;53.266;7.920;2023-04-06T00:16:15;7.63;;;6.03;;
29662;SDS011;16578;53.266;7.920;2023-04-06T00:18:41;8.18;;;5.93;;
29662;SDS011;16578;53.266;7.920;2023-04-06T00:21:06;8.35;;;6.63;;
29662;SDS011;16578;53.266;7.920;2023-04-06T00:23:32;9.73;;;6.60;;
29662;SDS011;16578;53.266;7.920;2023-04-06T00:25:57;7.55;;;5.80;;
29662;SDS011;16578;53.266;7.920;2023-04-06T00:28:23;8.65;;;5.72;;
29662;SDS011;16578;53.266;7.920;2023-04-06T00:30:52;10.75;;;6.25;;
29662;SDS011;16578;53.266;7.920;2023-04-06T00:33:19;8.70;;;6.30;;
29662;SDS011;16578;53.266;7.920;2023-04-06T00:35:45;10.52;;;6.30;;
29662;SDS011;16578;53.266;7.920;2023-04-06T00:38:11;8.88;;;6.18;;
29662;SDS011;16578;53.266;7.920;2023-04-06T00:40:37;9.95;;;6.53;;
29662;SDS011;16578;53.266;7.920;2023-04-06T00:43:04;9.50;;;6.63;;
29662;SDS011;16578;53.266;7.920;2023-04-06T00:45:34;11.82;;;7.53;;
29662;SDS011;16578;53.266;7.920;2023-04-06T00:47:59;12.13;;;6.65;;
29662;SDS011;16578;53.266;7.920;2023-04-06T00:50:26;9.27;;;7.05;;
29662;SDS011;16578;53.266;7.920;2023-04-06T00:52:52;11.10;;;6.95;;
29662;SDS011;16578;53.266;7.920;2023-04-06T00:55:19;9.30;;;6.50;;
29662;SDS011;16578;53.266;7.920;2023-04-06T00:57:45;12.73;;;7.45;;
29662;SDS011;16578;53.266;7.920;2023-04-06T01:00:10;9.82;;;7.40;;
29662;SDS011;16578;53.266;7.920;2023-04-06T01:02:37;11.88;;;6.47;;
29662;SDS011;16578;53.266;7.920;2023-04-06T01:05:03;9.95;;;7.05;;
29662;SDS011;16578;53.266;7.920;2023-04-06T01:07:29;11.60;;;6.78;;
29662;SDS011;16578;53.266;7.920;2023-04-06T01:09:58;11.23;;;7.35;;
29662;SDS011;16578;53.266;7.920;2023-04-06T01:12:27;10.52;;;7.30;;
29662;SDS011;16578;53.266;7.920;2023-04-06T01:14:58;9.18;;;7.60;;
29662;SDS011;16578;53.266;7.920;2023-04-06T01:17:25;9.90;;;7.18;;
29662;SDS011;16578;53.266;7.920;2023-04-06T01:20:39;12.68;;;7.30;;
29662;SDS011;16578;53.266;7.920;2023-04-06T01:23:02;9.10;;;6.47;;
29662;SDS011;16578;53.266;7.920;2023-04-06T01:25:28;12.00;;;7.43;;
29662;SDS011;16578;53.266;7.920;2023-04-06T01:27:54;11.70;;;6.85;;
29662;SDS011;16578;53.266;7.920;2023-04-06T01:30:19;11.80;;;8.10;;
29662;SDS011;16578;53.266;7.920;2023-04-06T01:32:45;12.23;;;8.00;;
29662;SDS011;16578;53.266;7.920;2023-04-06T01:35:11;13.07;;;8.32;;
29662;SDS011;16578;53.266;7.920;2023-04-06T01:37:36;11.38;;;8.13;;
29662;SDS011;16578;53.266;7.920;2023-04-06T01:40:02;9.63;;;8.00;;
29662;SDS011;16578;53.266;7.920;2023-04-06T01:42:28;12.77;;;7.75;;
29662;SDS011;16578;53.266;7.920;2023-04-06T01:44:55;12.07;;;7.65;;
29662;SDS011;16578;53.266;7.920;2023-04-06T01:47:20;11.57;;;7.80;;
29662;SDS011;16578;53.266;7.920;2023-04-06T01:49:46;10.43;;;7.60;;
29662;SDS011;16578;53.266;7.920;2023-04-06T01:52:11;12.98;;;9.25;;
29662;SDS011;16578;53.266;7.920;2023-04-06T01:54:37;14.85;;;8.95;;
29662;SDS011;16578;53.266;7.920;2023-04-06T01:57:02;12.85;;;8.18;;
29662;SDS011;16578;53.266;7.920;2023-04-06T01:59:28;12.68;;;8.57;;
29662;SDS011;16578;53.266;7.920;2023-04-06T02:01:53;12.20;;;9.00;;
29662;SDS011;16578;53.266;7.920;2023-04-06T02:04:19;13.10;;;9.25;;
29662;SDS011;16578;53.266;7.920;2023-04-06T02:06:46;12.80;;;8.70;;
29662;SDS011;16578;53.266;7.920;2023-04-06T02:09:11;15.73;;;10.40;;
29662;SDS011;16578;53.266;7.920;2023-04-06T02:11:37;14.93;;;9.82;;
29662;SDS011;16578;53.266;7.920;2023-04-06T02:14:02;13.27;;;8.70;;
29662;SDS011;16578;53.266;7.920;2023-04-06T02:16:28;13.25;;;8.93;;
29662;SDS011;16578;53.266;7.920;2023-04-06T02:18:53;15.32;;;10.40;;
29662;SDS011;16578;53.266;7.920;2023-04-06T02:21:19;12.88;;;9.85;;
29662;SDS011;16578;53.266;7.920;2023-04-06T02:23:45;13.57;;;9.77;;
29662;SDS011;16578;53.266;7.920;2023-04-06T02:26:12;14.13;;;9.23;;
29662;SDS011;16578;53.266;7.920;2023-04-06T02:28:38;15.80;;;9.80;;
29662;SDS011;16578;53.266;7.920;2023-04-06T02:31:03;12.98;;;9.00;;
29662;SDS011;16578;53.266;7.920;2023-04-06T02:33:29;14.43;;;9.60;;
29662;SDS011;16578;53.266;7.920;2023-04-06T02:35:54;15.10;;;9.48;;
29662;SDS011;16578;53.266;7.920;2023-04-06T02:38:20;17.30;;;10.55;;
29662;SDS011;16578;53.266;7.920;2023-04-06T02:40:45;13.13;;;9.80;;
29662;SDS011;16578;53.266;7.920;2023-04-06T02:43:11;15.27;;;11.57;;
29662;SDS011;16578;53.266;7.920;2023-04-06T02:45:36;14.75;;;11.10;;
29662;SDS011;16578;53.266;7.920;2023-04-06T02:48:02;16.40;;;11.93;;
29662;SDS011;16578;53.266;7.920;2023-04-06T02:50:28;18.60;;;12.15;;
29662;SDS011;16578;53.266;7.920;2023-04-06T02:52:53;18.00;;;11.43;;
29662;SDS011;16578;53.266;7.920;2023-04-06T02:55:19;17.55;;;11.45;;
29662;SDS011;16578;53.266;7.920;2023-04-06T02:57:45;18.08;;;11.80;;
29662;SDS011;16578;53.266;7.920;2023-04-06T03:00:11;16.63;;;10.63;;
29662;SDS011;16578;53.266;7.920;2023-04-06T03:02:37;19.02;;;11.13;;
29662;SDS011;16578;53.266;7.920;2023-04-06T03:05:03;16.27;;;10.75;;
29662;SDS011;16578;53.266;7.920;2023-04-06T03:07:29;15.93;;;10.90;;
29662;SDS011;16578;53.266;7.920;2023-04-06T03:09:55;16.30;;;11.35;;
29662;SDS011;16578;53.266;7.920;2023-04-06T03:12:20;15.88;;;10.63;;
29662;SDS011;16578;53.266;7.920;2023-04-06T03:14:46;17.73;;;10.82;;
29662;SDS011;16578;53.266;7.920;2023-04-06T03:17:11;15.82;;;10.27;;
29662;SDS011;16578;53.266;7.920;2023-04-06T03:19:37;15.98;;;10.70;;
29662;SDS011;16578;53.266;7.920;2023-04-06T03:22:02;16.52;;;10.43;;
29662;SDS011;16578;53.266;7.920;2023-04-06T03:24:28;14.73;;;10.48;;
29662;SDS011;16578;53.266;7.920;2023-04-06T03:26:53;15.90;;;11.10;;
29662;SDS011;16578;53.266;7.920;2023-04-06T03:29:20;19.80;;;11.40;;
29662;SDS011;16578;53.266;7.920;2023-04-06T03:31:45;16.83;;;10.85;;
29662;SDS011;16578;53.266;7.920;2023-04-06T03:34:11;17.35;;;11.13;;
29662;SDS011;16578;53.266;7.920;2023-04-06T03:36:36;18.75;;;10.65;;
29662;SDS011;16578;53.266;7.920;2023-04-06T03:39:02;20.83;;;10.02;;
29662;SDS011;16578;53.266;7.920;2023-04-06T03:41:28;17.33;;;11.05;;
29662;SDS011;16578;53.266;7.920;2023-04-06T03:43:54;15.38;;;10.13;;
29662;SDS011;16578;53.266;7.920;2023-04-06T03:46:19;15.63;;;11.05;;
29662;SDS011;16578;53.266;7.920;2023-04-06T03:48:45;17.70;;;12.75;;
29662;SDS011;16578;53.266;7.920;2023-04-06T03:51:13;16.85;;;12.85;;
29662;SDS011;16578;53.266;7.920;2023-04-06T03:53:39;19.15;;;11.80;;
29662;SDS011;16578;53.266;7.920;2023-04-06T03:56:04;15.27;;;10.50;;
29662;SDS011;16578;53.266;7.920;2023-04-06T03:58:30;17.98;;;11.70;;
29662;SDS011;16578;53.266;7.920;2023-04-06T04:00:56;15.77;;;12.15;;
29662;SDS011;16578;53.266;7.920;2023-04-06T04:03:21;17.20;;;11.55;;
29662;SDS011;16578;53.266;7.920;2023-04-06T04:05:48;18.73;;;12.55;;
29662;SDS011;16578;53.266;7.920;2023-04-06T04:08:15;23.85;;;12.10;;
29662;SDS011;16578;53.266;7.920;2023-04-06T04:10:40;17.85;;;12.75;;
29662;SDS011;16578;53.266;7.920;2023-04-06T04:13:06;19.30;;;12.10;;
29662;SDS011;16578;53.266;7.920;2023-04-06T04:15:32;21.35;;;11.73;;
29662;SDS011;16578;53.266;7.920;2023-04-06T04:17:57;19.10;;;11.80;;
29662;SDS011;16578;53.266;7.920;2023-04-06T04:20:23;17.27;;;12.13;;
29662;SDS011;16578;53.266;7.920;2023-04-06T04:22:48;18.38;;;11.68;;
29662;SDS011;16578;53.266;7.920;2023-04-06T04:25:14;20.08;;;11.68;;
29662;SDS011;16578;53.266;7.920;2023-04-06T04:27:39;20.20;;;11.38;;
29662;SDS011;16578;53.266;7.920;2023-04-06T04:30:05;20.08;;;12.05;;
29662;SDS011;16578;53.266;7.920;2023-04-06T04:32:31;19.02;;;11.98;;
29662;SDS011;16578;53.266;7.920;2023-04-06T04:34:57;16.05;;;11.75;;
29662;SDS011;16578;53.266;7.920;2023-04-06T04:37:22;17.85;;;11.85;;
29662;SDS011;16578;53.266;7.920;2023-04-06T04:39:48;18.23;;;11.50;;
29662;SDS011;16578;53.266;7.920;2023-04-06T04:42:13;17.38;;;11.95;;
29662;SDS011;16578;53.266;7.920;2023-04-06T04:44:39;17.02;;;11.77;;
29662;SDS011;16578;53.266;7.920;2023-04-06T04:47:05;22.88;;;11.25;;
29662;SDS011;16578;53.266;7.920;2023-04-06T04:49:30;15.90;;;10.55;;
29662;SDS011;16578;53.266;7.920;2023-04-06T04:51:56;18.08;;;11.82;;
29662;SDS011;16578;53.266;7.920;2023-04-06T04:54:21;15.57;;;10.55;;
29662;SDS011;16578;53.266;7.920;2023-04-06T04:56:47;16.90;;;12.32;;
29662;SDS011;16578;53.266;7.920;2023-04-06T04:59:13;15.48;;;10.90;;
29662;SDS011;16578;53.266;7.920;2023-04-06T05:01:38;20.10;;;12.10;;
29662;SDS011;16578;53.266;7.920;2023-04-06T05:04:04;16.60;;;11.75;;
29662;SDS011;16578;53.266;7.920;2023-04-06T05:06:30;16.98;;;12.27;;
29662;SDS011;16578;53.266;7.920;2023-04-06T05:08:55;16.58;;;11.75;;
29662;SDS011;16578;53.266;7.920;2023-04-06T05:11:21;16.35;;;10.85;;
29662;SDS011;16578;53.266;7.920;2023-04-06T05:13:47;16.25;;;11.23;;
29662;SDS011;16578;53.266;7.920;2023-04-06T05:16:12;13.38;;;9.75;;
29662;SDS011;16578;53.266;7.920;2023-04-06T05:18:38;16.20;;;10.40;;
29662;SDS011;16578;53.266;7.920;2023-04-06T05:21:03;14.57;;;10.52;;
29662;SDS011;16578;53.266;7.920;2023-04-06T05:23:29;17.15;;;11.48;;
29662;SDS011;16578;53.266;7.920;2023-04-06T05:25:55;17.73;;;11.20;;
29662;SDS011;16578;53.266;7.920;2023-04-06T05:28:20;16.02;;;11.48;;
29662;SDS011;16578;53.266;7.920;2023-04-06T05:30:46;17.15;;;10.43;;
29662;SDS011;16578;53.266;7.920;2023-04-06T05:33:12;18.17;;;10.75;;
29662;SDS011;16578;53.266;7.920;2023-04-06T05:35:38;17.92;;;12.10;;
29662;SDS011;16578;53.266;7.920;2023-04-06T05:38:05;17.30;;;12.40;;
29662;SDS011;16578;53.266;7.920;2023-04-06T05:40:32;17.60;;;11.88;;
29662;SDS011;16578;53.266;7.920;2023-04-06T05:42:58;14.98;;;11.45;;
29662;SDS011;16578;53.266;7.920;2023-04-06T05:45:23;16.70;;;11.73;;
29662;SDS011;16578;53.266;7.920;2023-04-06T05:47:49;18.40;;;11.95;;
29662;SDS011;16578;53.266;7.920;2023-04-06T05:50:15;17.33;;;11.18;;
29662;SDS011;16578;53.266;7.920;2023-04-06T05:52:40;18.48;;;10.93;;
29662;SDS011;16578;53.266;7.920;2023-04-06T05:55:11;15.40;;;11.13;;
29662;SDS011;16578;53.266;7.920;2023-04-06T05:57:37;18.35;;;11.52;;
29662;SDS011;16578;53.266;7.920;2023-04-06T06:00:03;14.52;;;11.07;;
29662;SDS011;16578;53.266;7.920;2023-04-06T06:02:32;17.55;;;11.18;;
29662;SDS011;16578;53.266;7.920;2023-04-06T06:04:58;17.85;;;11.93;;
29662;SDS011;16578;53.266;7.920;2023-04-06T06:07:23;18.83;;;11.25;;
29662;SDS011;16578;53.266;7.920;2023-04-06T06:09:49;17.35;;;11.15;;
29662;SDS011;16578;53.266;7.920;2023-04-06T06:12:15;17.77;;;11.82;;
29662;SDS011;16578;53.266;7.920;2023-04-06T06:14:40;18.67;;;10.75;;
29662;SDS011;16578;53.266;7.920;2023-04-06T06:17:06;15.02;;;10.77;;
29662;SDS011;16578;53.266;7.920;2023-04-06T06:19:31;14.05;;;10.00;;
29662;SDS011;16578;53.266;7.920;2023-04-06T06:21:57;13.95;;;10.55;;
29662;SDS011;16578;53.266;7.920;2023-04-06T06:24:23;13.93;;;10.00;;
29662;SDS011;16578;53.266;7.920;2023-04-06T06:26:49;14.35;;;9.90;;
29662;SDS011;16578;53.266;7.920;2023-04-06T06:29:14;13.45;;;9.80;;
29662;SDS011;16578;53.266;7.920;2023-04-06T06:31:40;13.13;;;9.43;;
29662;SDS011;16578;53.266;7.920;2023-04-06T06:34:05;14.13;;;9.85;;
29662;SDS011;16578;53.266;7.920;2023-04-06T06:36:31;12.50;;;9.30;;
29662;SDS011;16578;53.266;7.920;2023-04-06T06:38:57;12.25;;;9.60;;
29662;SDS011;16578;53.266;7.920;2023-04-06T06:41:23;13.43;;;10.13;;
29662;SDS011;16578;53.266;7.920;2023-04-06T06:43:51;18.33;;;9.90;;
29662;SDS011;16578;53.266;7.920;2023-04-06T06:46:16;13.88;;;9.98;;
29662;SDS011;16578;53.266;7.920;2023-04-06T06:48:42;12.10;;;9.10;;
29662;SDS011;16578;53.266;7.920;2023-04-06T06:51:08;12.40;;;8.80;;
29662;SDS011;16578;53.266;7.920;2023-04-06T06:53:34;11.65;;;8.85;;
29662;SDS011;16578;53.266;7.920;2023-04-06T06:56:00;13.20;;;8.98;;
29662;SDS011;16578;53.266;7.920;2023-04-06T06:58:26;10.68;;;8.50;;
29662;SDS011;16578;53.266;7.920;2023-04-06T07:00:55;11.25;;;8.63;;
29662;SDS011;16578;53.266;7.920;2023-04-06T07:03:24;15.07;;;8.50;;
29662;SDS011;16578;53.266;7.920;2023-04-06T07:05:50;11.73;;;7.85;;
29662;SDS011;16578;53.266;7.920;2023-04-06T07:08:19;11.25;;;7.95;;
29662;SDS011;16578;53.266;7.920;2023-04-06T07:10:45;10.15;;;8.02;;
29662;SDS011;16578;53.266;7.920;2023-04-06T07:13:11;10.55;;;7.82;;
29662;SDS011;16578;53.266;7.920;2023-04-06T07:15:37;11.55;;;7.82;;
29662;SDS011;16578;53.266;7.920;2023-04-06T07:18:02;10.70;;;7.18;;
29662;SDS011;16578;53.266;7.920;2023-04-06T07:20:28;9.60;;;8.07;;
29662;SDS011;16578;53.266;7.920;2023-04-06T07:22:54;11.68;;;8.18;;
29662;SDS011;16578;53.266;7.920;2023-04-06T07:25:19;10.40;;;7.90;;
29662;SDS011;16578;53.266;7.920;2023-04-06T07:27:45;13.07;;;7.68;;
29662;SDS011;16578;53.266;7.920;2023-04-06T07:30:11;9.43;;;7.25;;
29662;SDS011;16578;53.266;7.920;2023-04-06T07:32:36;10.73;;;8.32;;
29662;SDS011;16578;53.266;7.920;2023-04-06T07:35:02;8.63;;;7.15;;
29662;SDS011;16578;53.266;7.920;2023-04-06T07:37:28;10.07;;;7.60;;
29662;SDS011;16578;53.266;7.920;2023-04-06T07:39:54;9.27;;;6.93;;
29662;SDS011;16578;53.266;7.920;2023-04-06T07:42:19;9.00;;;6.68;;
29662;SDS011;16578;53.266;7.920;2023-04-06T07:44:45;9.52;;;6.53;;
29662;SDS011;16578;53.266;7.920;2023-04-06T07:47:10;8.18;;;7.15;;
29662;SDS011;16578;53.266;7.920;2023-04-06T07:49:36;9.13;;;6.45;;
29662;SDS011;16578;53.266;7.920;2023-04-06T07:52:02;10.63;;;6.30;;
29662;SDS011;16578;53.266;7.920;2023-04-06T07:54:28;8.52;;;6.00;;
29662;SDS011;16578;53.266;7.920;2023-04-06T07:56:54;9.45;;;7.25;;
29662;SDS011;16578;53.266;7.920;2023-04-06T07:59:19;7.53;;;6.03;;
29662;SDS011;16578;53.266;7.920;2023-04-06T08:01:45;7.57;;;6.10;;
29662;SDS011;16578;53.266;7.920;2023-04-06T08:04:10;9.18;;;6.68;;
29662;SDS011;16578;53.266;7.920;2023-04-06T08:06:36;8.18;;;6.45;;
29662;SDS011;16578;53.266;7.920;2023-04-06T08:09:02;7.97;;;6.03;;
29662;SDS011;16578;53.266;7.920;2023-04-06T08:11:28;7.53;;;6.38;;
29662;SDS011;16578;53.266;7.920;2023-04-06T08:13:54;9.68;;;6.60;;
29662;SDS011;16578;53.266;7.920;2023-04-06T08:16:21;8.75;;;5.80;;
29662;SDS011;16578;53.266;7.920;2023-04-06T08:18:48;10.48;;;5.95;;
29662;SDS011;16578;53.266;7.920;2023-04-06T08:21:14;7.55;;;5.90;;
29662;SDS011;16578;53.266;7.920;2023-04-06T08:23:39;7.38;;;5.57;;
29662;SDS011;16578;53.266;7.920;2023-04-06T08:26:05;6.07;;;5.47;;
29662;SDS011;16578;53.266;7.920;2023-04-06T08:28:31;7.85;;;6.13;;
29662;SDS011;16578;53.266;7.920;2023-04-06T08:30:57;6.55;;;5.68;;
29662;SDS011;16578;53.266;7.920;2023-04-06T08:33:22;6.35;;;5.72;;
29662;SDS011;16578;53.266;7.920;2023-04-06T08:35:48;7.75;;;5.97;;
29662;SDS011;16578;53.266;7.920;2023-04-06T08:38:14;10.75;;;6.18;;
29662;SDS011;16578;53.266;7.920;2023-04-06T08:40:39;8.52;;;5.90;;
29662;SDS011;16578;53.266;7.920;2023-04-06T08:43:06;7.85;;;5.93;;
29662;SDS011;16578;53.266;7.920;2023-04-06T08:45:36;7.68;;;5.78;;
29662;SDS011;16578;53.266;7.920;2023-04-06T08:48:03;7.63;;;6.00;;
29662;SDS011;16578;53.266;7.920;2023-04-06T08:50:32;8.93;;;6.25;;
29662;SDS011;16578;53.266;7.920;2023-04-06T08:52:58;7.88;;;6.35;;
29662;SDS011;16578;53.266;7.920;2023-04-06T08:55:24;7.85;;;6.35;;
29662;SDS011;16578;53.266;7.920;2023-04-06T08:57:50;6.88;;;5.57;;
29662;SDS011;16578;53.266;7.920;2023-04-06T09:00:19;10.77;;;5.65;;
29662;SDS011;16578;53.266;7.920;2023-04-06T09:02:45;7.10;;;5.90;;
29662;SDS011;16578;53.266;7.920;2023-04-06T09:05:12;7.38;;;5.75;;
29662;SDS011;16578;53.266;7.920;2023-04-06T09:07:38;9.25;;;5.93;;
29662;SDS011;16578;53.266;7.920;2023-04-06T09:10:04;9.95;;;5.95;;
29662;SDS011;16578;53.266;7.920;2023-04-06T09:12:31;8.55;;;6.38;;
29662;SDS011;16578;53.266;7.920;2023-04-06T09:14:58;10.98;;;6.47;;
29662;SDS011;16578;53.266;7.920;2023-04-06T09:17:25;7.38;;;5.90;;
29662;SDS011;16578;53.266;7.920;2023-04-06T09:19:53;8.65;;;5.88;;
29662;SDS011;16578;53.266;7.920;2023-04-06T09:22:19;10.00;;;6.63;;
29662;SDS011;16578;53.266;7.920;2023-04-06T09:24:46;9.25;;;6.93;;
29662;SDS011;16578;53.266;7.920;2023-04-06T09:27:12;6.65;;;5.82;;
29662;SDS011;16578;53.266;7.920;2023-04-06T09:29:38;8.55;;;6.07;;
29662;SDS011;16578;53.266;7.920;2023-04-06T09:32:05;9.18;;;6.78;;
29662;SDS011;16578;53.266;7.920;2023-04-06T09:34:32;9.48;;;6.80;;
29662;SDS011;16578;53.266;7.920;2023-04-06T09:37:11;10.80;;;7.03;;
29662;SDS011;16578;53.266;7.920;2023-04-06T09:39:46;7.55;;;6.35;;
29662;SDS011;16578;53.266;7.920;2023-04-06T09:42:22;9.20;;;7.43;;
29662;SDS011;16578;53.266;7.920;2023-04-06T09:44:51;9.88;;;6.72;;
29662;SDS011;16578;53.266;7.920;2023-04-06T09:47:16;8.02;;;5.95;;
29662;SDS011;16578;53.266;7.920;2023-04-06T09:49:43;9.68;;;7.43;;
29662;SDS011;16578;53.266;7.920;2023-04-06T09:52:11;8.60;;;6.10;;
29662;SDS011;16578;53.266;7.920;2023-04-06T09:54:37;9.38;;;6.93;;
29662;SDS011;16578;53.266;7.920;2023-04-06T09:59:48;7.72;;;6.13;;
29662;SDS011;16578;53.266;7.920;2023-04-06T10:05:20;8.25;;;6.20;;
29662;SDS011;16578;53.266;7.920;2023-04-06T10:07:56;8.30;;;6.97;;
29662;SDS011;16578;53.266;7.920;2023-04-06T10:10:24;12.15;;;8.05;;
29662;SDS011;16578;53.266;7.920;2023-04-06T10:12:50;8.57;;;6.45;;
29662;SDS011;16578;53.266;7.920;2023-04-06T10:15:16;12.35;;;7.63;;
29662;SDS011;16578;53.266;7.920;2023-04-06T10:17:42;7.88;;;6.03;;
29662;SDS011;16578;53.266;7.920;2023-04-06T10:20:10;10.10;;;7.35;;
29662;SDS011;16578;53.266;7.920;2023-04-06T10:22:45;10.70;;;7.63;;
29662;SDS011;16578;53.266;7.920;2023-04-06T10:25:25;12.10;;;8.45;;
29662;SDS011;16578;53.266;7.920;2023-04-06T10:27:58;15.32;;;7.88;;
29662;SDS011;16578;53.266;7.920;2023-04-06T10:30:25;10.10;;;7.03;;
29662;SDS011;16578;53.266;7.920;2023-04-06T10:32:52;9.43;;;7.80;;
29662;SDS011;16578;53.266;7.920;2023-04-06T10:35:18;10.93;;;9.43;;
29662;SDS011;16578;53.266;7.920;2023-04-06T10:37:50;12.23;;;9.52;;
29662;SDS011;16578;53.266;7.920;2023-04-06T10:40:26;11.73;;;8.60;;
29662;SDS011;16578;53.266;7.920;2023-04-06T10:42:53;12.45;;;9.07;;
29662;SDS011;16578;53.266;7.920;2023-04-06T10:45:24;10.05;;;8.25;;
29662;SDS011;16578;53.266;7.920;2023-04-06T10:47:53;11.70;;;9.60;;
29662;SDS011;16578;53.266;7.920;2023-04-06T10:50:20;11.60;;;9.52;;
29662;SDS011;16578;53.266;7.920;2023-04-06T10:52:47;10.52;;;8.90;;
29662;SDS011;16578;53.266;7.920;2023-04-06T10:55:27;12.00;;;8.55;;
29662;SDS011;16578;53.266;7.920;2023-04-06T10:57:53;13.65;;;9.18;;
29662;SDS011;16578;53.266;7.920;2023-04-06T11:00:19;9.98;;;8.43;;
29662;SDS011;16578;53.266;7.920;2023-04-06T11:02:45;11.57;;;8.60;;
29662;SDS011;16578;53.266;7.920;2023-04-06T11:05:11;11.20;;;8.73;;
29662;SDS011;16578;53.266;7.920;2023-04-06T11:10:06;14.77;;;9.32;;
29662;SDS011;16578;53.266;7.920;2023-04-06T11:12:32;12.15;;;9.35;;
29662;SDS011;16578;53.266;7.920;2023-04-06T11:14:59;12.15;;;10.20;;
29662;SDS011;16578;53.266;7.920;2023-04-06T11:17:31;13.25;;;10.60;;
29662;SDS011;16578;53.266;7.920;2023-04-06T11:19:58;13.73;;;9.98;;
29662;SDS011;16578;53.266;7.920;2023-04-06T11:22:25;13.38;;;8.93;;
29662;SDS011;16578;53.266;7.920;2023-04-06T11:24:51;15.38;;;10.07;;
29662;SDS011;16578;53.266;7.920;2023-04-06T11:27:18;11.60;;;9.15;;
29662;SDS011;16578;53.266;7.920;2023-04-06T11:29:45;12.35;;;7.97;;
29662;SDS011;16578;53.266;7.920;2023-04-06T11:32:11;9.38;;;7.90;;
29662;SDS011;16578;53.266;7.920;2023-04-06T11:34:44;14.75;;;10.15;;
29662;SDS011;16578;53.266;7.920;2023-04-06T11:37:12;9.77;;;8.18;;
29662;SDS011;16578;53.266;7.920;2023-04-06T11:39:38;10.05;;;7.97;;
29662;SDS011;16578;53.266;7.920;2023-04-06T11:42:05;11.32;;;7.40;;
29662;SDS011;16578;53.266;7.920;2023-04-06T11:44:32;12.02;;;7.72;;
29662;SDS011;16578;53.266;7.920;2023-04-06T11:47:07;10.23;;;8.13;;
29662;SDS011;16578;53.266;7.920;2023-04-06T11:49:38;10.00;;;7.82;;
29662;SDS011;16578;53.266;7.920;2023-04-06T11:52:17;10.80;;;7.75;;
29662;SDS011;16578;53.266;7.920;2023-04-06T11:54:45;15.43;;;8.70;;
29662;SDS011;16578;53.266;7.920;2023-04-06T11:57:12;10.75;;;8.63;;
29662;SDS011;16578;53.266;7.920;2023-04-06T11:59:38;13.55;;;8.60;;
29662;SDS011;16578;53.266;7.920;2023-04-06T12:02:04;12.48;;;9.00;;
29662;SDS011;16578;53.266;7.920;2023-04-06T12:04:31;8.18;;;6.85;;
29662;SDS011;16578;53.266;7.920;2023-04-06T12:06:56;9.27;;;8.27;;
29662;SDS011;16578;53.266;7.920;2023-04-06T12:09:23;9.75;;;8.35;;
29662;SDS011;16578;53.266;7.920;2023-04-06T12:11:48;10.82;;;7.85;;
29662;SDS011;16578;53.266;7.920;2023-04-06T12:14:14;9.23;;;7.80;;
29662;SDS011;16578;53.266;7.920;2023-04-06T12:16:41;10.98;;;7.47;;
29662;SDS011;16578;53.266;7.920;2023-04-06T12:19:06;13.40;;;8.65;;
29662;SDS011;16578;53.266;7.920;2023-04-06T12:21:33;9.30;;;8.25;;
29662;SDS011;16578;53.266;7.920;2023-04-06T12:24:01;9.55;;;8.02;;
29662;SDS011;16578;53.266;7.920;2023-04-06T12:26:28;10.15;;;8.73;;
29662;SDS011;16578;53.266;7.920;2023-04-06T12:28:55;9.35;;;8.10;;
29662;SDS011;16578;53.266;7.920;2023-04-06T12:31:21;11.20;;;9.10;;
29662;SDS011;16578;53.266;7.920;2023-04-06T12:33:50;11.25;;;9.02;;
29662;SDS011;16578;53.266;7.920;2023-04-06T12:36:16;12.00;;;9.68;;
29662;SDS011;16578;53.266;7.920;2023-04-06T12:38:44;10.98;;;8.50;;
29662;SDS011;16578;53.266;7.920;2023-04-06T12:41:11;10.35;;;9.23;;
29662;SDS011;16578;53.266;7.920;2023-04-06T12:43:38;10.75;;;8.63;;
29662;SDS011;16578;53.266;7.920;2023-04-06T12:46:04;10.57;;;8.43;;
29662;SDS011;16578;53.266;7.920;2023-04-06T12:48:30;10.18;;;7.57;;
29662;SDS011;16578;53.266;7.920;2023-04-06T12:50:57;9.15;;;7.60;;
29662;SDS011;16578;53.266;7.920;2023-04-06T12:53:24;9.93;;;8.02;;
29662;SDS011;16578;53.266;7.920;2023-04-06T12:55:50;13.70;;;8.90;;
29662;SDS011;16578;53.266;7.920;2023-04-06T12:58:16;11.13;;;9.52;;
29662;SDS011;16578;53.266;7.920;2023-04-06T13:00:42;11.18;;;9.70;;
29662;SDS011;16578;53.266;7.920;2023-04-06T13:03:08;10.55;;;9.43;;
29662;SDS011;16578;53.266;7.920;2023-04-06T13:05:34;12.68;;;9.98;;
29662;SDS011;16578;53.266;7.920;2023-04-06T13:07:59;11.38;;;8.02;;
29662;SDS011;16578;53.266;7.920;2023-04-06T13:10:25;9.77;;;8.77;;
29662;SDS011;16578;53.266;7.920;2023-04-06T13:12:51;9.85;;;8.48;;
29662;SDS011;16578;53.266;7.920;2023-04-06T13:15:17;11.13;;;8.63;;
29662;SDS011;16578;53.266;7.920;2023-04-06T13:17:42;11.43;;;8.95;;
29662;SDS011;16578;53.266;7.920;2023-04-06T13:20:08;10.57;;;9.43;;
29662;SDS011;16578;53.266;7.920;2023-04-06T13:22:34;13.93;;;10.07;;
29662;SDS011;16578;53.266;7.920;2023-04-06T13:25:00;14.77;;;11.55;;
29662;SDS011;16578;53.266;7.920;2023-04-06T13:27:26;13.48;;;10.95;;
29662;SDS011;16578;53.266;7.920;2023-04-06T13:29:52;11.40;;;9.82;;
29662;SDS011;16578;53.266;7.920;2023-04-06T13:32:18;10.85;;;8.65;;
29662;SDS011;16578;53.266;7.920;2023-04-06T13:34:44;10.77;;;9.43;;
29662;SDS011;16578;53.266;7.920;2023-04-06T13:37:11;13.48;;;10.93;;
29662;SDS011;16578;53.266;7.920;2023-04-06T13:39:44;13.20;;;11.02;;
29662;SDS011;16578;53.266;7.920;2023-04-06T13:42:09;12.02;;;10.45;;
29662;SDS011;16578;53.266;7.920;2023-04-06T13:44:35;14.23;;;11.52;;
29662;SDS011;16578;53.266;7.920;2023-04-06T13:47:00;13.85;;;11.40;;
29662;SDS011;16578;53.266;7.920;2023-04-06T13:49:26;12.88;;;10.93;;
29662;SDS011;16578;53.266;7.920;2023-04-06T13:51:51;14.00;;;11.77;;
29662;SDS011;16578;53.266;7.920;2023-04-06T13:54:22;16.35;;;12.70;;
29662;SDS011;16578;53.266;7.920;2023-04-06T13:56:48;13.60;;;11.77;;
29662;SDS011;16578;53.266;7.920;2023-04-06T13:59:16;16.17;;;13.90;;
29662;SDS011;16578;53.266;7.920;2023-04-06T14:01:56;15.32;;;12.15;;
29662;SDS011;16578;53.266;7.920;2023-04-06T14:04:22;17.00;;;13.13;;
29662;SDS011;16578;53.266;7.920;2023-04-06T14:07:00;15.85;;;12.90;;
29662;SDS011;16578;53.266;7.920;2023-04-06T14:09:27;16.63;;;13.95;;
29662;SDS011;16578;53.266;7.920;2023-04-06T14:11:59;15.90;;;13.13;;
29662;SDS011;16578;53.266;7.920;2023-04-06T14:14:25;15.80;;;13.98;;
29662;SDS011;16578;53.266;7.920;2023-04-06T14:16:51;17.35;;;14.15;;
29662;SDS011;16578;53.266;7.920;2023-04-06T14:19:17;17.05;;;13.90;;
29662;SDS011;16578;53.266;7.920;2023-04-06T14:21:43;17.08;;;13.77;;
29662;SDS011;16578;53.266;7.920;2023-04-06T14:24:09;15.43;;;13.48;;
29662;SDS011;16578;53.266;7.920;2023-04-06T14:26:35;14.80;;;13.18;;
29662;SDS011;16578;53.266;7.920;2023-04-06T14:29:02;18.02;;;14.38;;
29662;SDS011;16578;53.266;7.920;2023-04-06T14:31:29;16.65;;;14.10;;
29662;SDS011;16578;53.266;7.920;2023-04-06T14:33:55;17.40;;;13.30;;
29662;SDS011;16578;53.266;7.920;2023-04-06T14:36:21;17.10;;;12.73;;
29662;SDS011;16578;53.266;7.920;2023-04-06T14:38:47;14.00;;;11.30;;